Terminal Aerodrome Forecast
Issued by NWS

Home | Current Version | Previous Version | Text Only | Print | Product List | Glossary On
Versions: 1 2 3 4 5 6 7 8 9 10 11 12 13 14
610
FTUS46 KMTR 242339
TAFOAK
TAF
KOAK 242339Z 2500/2606 28014G18KT P6SM BKN050 BKN200
     FM250300 29012KT P6SM SCT030 BKN150
     FM250800 32008KT P6SM FEW025
     FM251200 VRB03KT P6SM FEW020
     FM251900 26009KT P6SM FEW030 SCT150
     FM260000 26012KT P6SM FEW020 SCT050 BKN120=

USA.gov is the U.S. government's official web portal to all federal, state and local government web resources and services.